ESUI weather

Mellansel Airport
Mellansel, Västernorrlands län, Sweden

Public forecast

Using degrees Celsius for public forecast. Weather courtesy of forecast.io.

METAR (pilot weather report)

Closest report is Örnsköldsvik Airport, 17.8 nm (33.0 km) E. Retrieved 2019/08/24 04:20 UTC (3 minutes ago):

ESNO 240420Z AUTO 31008KT 9999 NCD 11/07 Q1019

TAF (pilot weather forecast)

Forecast is more than 12 hours old.

Closest forecast is Örnsköldsvik Airport, 17.8 nm (33.0 km) E. Retrieved 2015/08/24 09:33 UTC (4 years ago):

TAF ESNO 240830Z 2409/2424 18004KT CAVOK